Time;durP1;ratioP1;P1;durP2;ratioP2;P2;SDS_P1;SDS_P2;PMS_P1;PMS_P2;Temp;Humidity;BMP_temperature;BMP_pressure;BME280_temperature;BME280_humidity;BME280_pressure;Samples;Min_cycle;Max_cycle;Signal;HPM_P1;HPM_P2
2022/09/04 00:02:23;;;;;;;11.48;6.03;;;;;;;11.21;68.17;101274.77;1764553;79;25705;-78
2022/09/04 00:05:10;;;;;;;12.88;6.30;;;;;;;11.21;68.13;101282.31;1783566;79;28327;-78
2022/09/04 00:07:42;;;;;;;14.23;6.50;;;;;;;11.21;68.15;101280.13;1768822;79;25808;-78
2022/09/04 00:10:40;;;;;;;12.47;6.65;;;;;;;11.22;68.25;101279.14;1774669;79;25801;-78
2022/09/04 00:13:27;;;;;;;12.70;7.83;;;;;;;11.21;68.17;101274.27;1776217;79;26959;-77
2022/09/04 00:16:16;;;;;;;12.63;6.33;;;;;;;11.24;68.24;101285.16;1768165;80;26013;-78
2022/09/04 00:18:54;;;;;;;15.23;6.83;;;;;;;11.24;68.13;101283.81;1757019;80;27424;-78
2022/09/04 00:21:34;;;;;;;12.07;6.95;;;;;;;11.24;68.12;101283.81;1758375;80;25730;-78
2022/09/04 00:24:12;;;;;;;15.80;7.47;;;;;;;11.19;68.05;101286.17;1768948;79;25870;-78
2022/09/04 00:27:00;;;;;;;12.40;6.35;;;;;;;11.13;68.09;101281.02;1788711;78;26556;-78
2022/09/04 00:29:35;;;;;;;15.13;6.55;;;;;;;11.10;68.17;101277.86;1780323;79;25830;-78
2022/09/04 00:32:19;;;;;;;13.10;6.95;;;;;;;11.05;68.28;101283.73;1782608;79;28345;-78
2022/09/04 00:35:08;;;;;;;11.83;7.35;;;;;;;11.03;68.29;101288.94;1772068;78;25723;-78
2022/09/04 00:38:05;;;;;;;13.83;7.12;;;;;;;11.03;68.29;101288.44;1704072;81;25824;-78
2022/09/04 00:40:41;;;;;;;12.80;6.70;;;;;;;11.04;68.30;101283.89;1736483;80;26113;-78
2022/09/04 00:43:31;;;;;;;14.38;7.33;;;;;;;10.99;68.29;101284.93;1736309;79;25939;-78
2022/09/04 00:46:27;;;;;;;15.18;7.12;;;;;;;10.94;68.36;101285.44;1792416;79;28263;-78
2022/09/04 00:49:23;;;;;;;18.32;7.25;;;;;;;10.89;68.52;101297.17;1765887;79;25786;-78
2022/09/04 00:52:18;;;;;;;15.75;7.25;;;;;;;10.85;68.50;101294.51;1766809;79;26415;-78
2022/09/04 00:55:39;;;;;;;12.20;7.40;;;;;;;10.81;68.63;101299.39;1766364;81;26082;-78
2022/09/04 00:58:35;;;;;;;12.60;7.00;;;;;;;10.77;68.63;101297.22;1755121;81;26064;-78
2022/09/04 01:01:01;;;;;;;11.73;6.25;;;;;;;10.71;68.81;101303.27;1764793;81;27505;-78
2022/09/04 01:03:39;;;;;;;14.35;7.08;;;;;;;10.67;68.91;101300.59;1766128;81;25920;-78
2022/09/04 01:06:29;;;;;;;14.35;6.67;;;;;;;10.66;69.01;101308.28;1767278;81;26078;-78
2022/09/04 01:09:21;;;;;;;10.63;7.00;;;;;;;10.65;69.09;101307.94;1766636;81;26531;-78
2022/09/04 01:12:25;;;;;;;13.95;7.00;;;;;;;10.61;69.12;101303.43;1756816;81;25723;-78
2022/09/04 01:15:14;;;;;;;16.60;7.58;;;;;;;10.56;69.12;101306.30;1754733;81;28336;-77
2022/09/04 01:18:01;;;;;;;14.03;7.70;;;;;;;10.57;69.25;101307.95;1755881;81;26482;-77
2022/09/04 01:21:05;;;;;;;16.97;7.78;;;;;;;10.59;69.34;101308.62;1704087;81;25743;-77
2022/09/04 01:24:07;;;;;;;13.98;7.90;;;;;;;10.54;69.36;101311.80;1732769;81;25769;-77
2022/09/04 01:26:57;;;;;;;15.55;7.33;;;;;;;10.53;69.38;101308.80;1754842;81;25834;-78
2022/09/04 01:29:46;;;;;;;14.33;6.92;;;;;;;10.50;69.48;101311.81;1757243;81;27455;-77
2022/09/04 01:32:45;;;;;;;13.55;7.75;;;;;;;10.47;69.51;101315.34;1746163;81;25821;-77
2022/09/04 01:35:34;;;;;;;11.63;7.33;;;;;;;10.41;69.58;101319.54;1738813;81;25328;-78
2022/09/04 01:38:26;;;;;;;12.98;7.70;;;;;;;10.33;69.70;101318.18;1755771;81;26436;-78
2022/09/04 01:41:22;;;;;;;14.73;7.20;;;;;;;10.28;69.90;101321.03;1762166;80;25735;-78
2022/09/04 01:43:50;;;;;;;11.73;7.25;;;;;;;10.25;70.04;101329.39;1743802;81;27464;-77
2022/09/04 01:46:42;;;;;;;15.98;7.80;;;;;;;10.21;70.12;101322.70;1750567;81;26153;-77
2022/09/04 01:49:20;;;;;;;13.30;7.05;;;;;;;10.22;70.21;101323.05;1765862;81;26581;-78
2022/09/04 01:52:08;;;;;;;14.83;7.55;;;;;;;10.19;70.28;101328.72;1767141;81;25809;-77
2022/09/04 01:55:15;;;;;;;13.93;7.12;;;;;;;10.15;70.29;101327.39;1765331;81;26336;-78
2022/09/04 01:58:02;;;;;;;15.30;7.60;;;;;;;10.10;70.52;101322.50;1726414;82;27503;-78
2022/09/04 02:00:34;;;;;;;13.30;6.85;;;;;;;10.05;70.67;101318.97;1767015;79;25858;-77
2022/09/04 02:03:26;;;;;;;12.20;7.60;;;;;;;10.01;70.69;101322.14;1763913;81;25808;-77
2022/09/04 02:06:28;;;;;;;12.45;7.70;;;;;;;10.03;70.95;101324.16;1766967;81;26355;-77
2022/09/04 02:09:29;;;;;;;16.57;7.50;;;;;;;9.98;70.90;101328.69;1764602;81;25921;-77
2022/09/04 02:12:34;;;;;;;15.72;8.68;;;;;;;9.94;71.02;101336.69;1759653;80;28442;-78
2022/09/04 02:15:24;;;;;;;14.35;6.92;;;;;;;9.92;71.17;101329.84;1765987;81;26286;-77
2022/09/04 02:18:11;;;;;;;11.75;7.35;;;;;;;9.94;71.27;101329.18;1767315;80;26535;-78
2022/09/04 02:20:36;;;;;;;13.08;7.30;;;;;;;9.97;71.24;101329.67;1757811;81;26733;-78
2022/09/04 02:23:31;;;;;;;11.75;7.22;;;;;;;10.01;71.04;101328.34;1765698;81;25822;-78
2022/09/04 02:26:06;;;;;;;13.28;7.17;;;;;;;10.03;70.93;101320.14;1766165;81;27458;-78
2022/09/04 02:28:54;;;;;;;18.32;8.18;;;;;;;10.02;70.97;101322.00;1799445;78;25771;-78
2022/09/04 02:31:59;;;;;;;16.07;7.08;;;;;;;9.99;70.94;101322.31;1764181;81;25886;-78
2022/09/04 02:35:01;;;;;;;13.38;7.37;;;;;;;9.98;71.04;101322.00;1764363;81;26508;-78
2022/09/04 02:37:51;;;;;;;13.68;7.47;;;;;;;9.97;71.10;101324.81;1681482;84;25836;-78
2022/09/04 02:40:53;;;;;;;15.00;7.20;;;;;;;9.90;71.19;101326.50;1759589;80;27439;-78
2022/09/04 02:43:58;;;;;;;13.03;6.83;;;;;;;9.86;71.24;101329.14;1734740;80;26211;-77
2022/09/04 02:46:39;;;;;;;15.28;7.08;;;;;;;9.85;71.40;101328.33;1777706;79;25275;-78
2022/09/04 02:50:03;;;;;;;13.90;7.25;;;;;;;9.82;71.40;101329.98;1783523;79;25860;-78
2022/09/04 02:52:47;;;;;;;13.62;6.87;;;;;;;9.82;71.46;101329.98;1786221;79;25825;-78
2022/09/04 02:55:43;;;;;;;13.10;6.90;;;;;;;9.81;71.32;101331.00;1753054;80;28311;-78
2022/09/04 02:58:26;;;;;;;17.82;8.70;;;;;;;9.82;71.27;101331.81;1761862;80;25907;-77
2022/09/04 03:01:03;;;;;;;12.10;6.67;;;;;;;9.80;71.43;101328.47;1765193;80;26392;-78
2022/09/04 03:03:44;;;;;;;13.18;7.30;;;;;;;9.76;71.37;101328.45;1768253;79;26335;-78
2022/09/04 03:06:15;;;;;;;13.20;7.08;;;;;;;9.77;71.40;101326.95;1763771;79;26408;-78
2022/09/04 03:08:50;;;;;;;11.63;7.28;;;;;;;9.77;71.27;101323.46;1767725;79;27431;-78
2022/09/04 03:11:30;;;;;;;16.75;7.78;;;;;;;9.75;71.15;101327.61;1754609;79;25882;-77
2022/09/04 03:14:10;;;;;;;16.37;6.95;;;;;;;9.75;71.22;101328.14;1738833;81;26433;-78
2022/09/04 03:16:51;;;;;;;13.00;7.60;;;;;;;9.71;71.19;101330.81;1761738;79;26530;-78
2022/09/04 03:19:41;;;;;;;13.28;6.95;;;;;;;9.66;71.36;101329.95;1729957;79;25774;-78
2022/09/04 03:22:16;;;;;;;13.65;7.65;;;;;;;9.63;71.50;101333.44;1770442;79;27713;-78
2022/09/04 03:25:22;;;;;;;14.73;7.28;;;;;;;9.58;71.64;101335.78;1737348;81;25812;-78
2022/09/04 03:27:49;;;;;;;12.68;7.15;;;;;;;9.56;71.72;101335.92;1766621;79;25725;-78
2022/09/04 03:30:16;;;;;;;14.68;7.83;;;;;;;9.54;71.72;101334.44;1778388;79;25927;-78
2022/09/04 03:33:09;;;;;;;12.18;7.83;;;;;;;9.54;71.75;101337.11;1773333;79;25720;-78
2022/09/04 03:35:57;;;;;;;12.65;6.90;;;;;;;9.54;71.69;101335.77;1772429;79;27538;-78
2022/09/04 03:39:03;;;;;;;13.62;6.45;;;;;;;9.51;71.58;101333.41;1765169;79;26467;-78
2022/09/04 03:42:04;;;;;;;10.13;6.92;;;;;;;9.50;71.57;101340.59;1770994;79;25661;-78
2022/09/04 03:44:48;;;;;;;11.15;7.35;;;;;;;9.47;71.44;101345.43;1761294;79;34870;-77
2022/09/04 03:47:41;;;;;;;13.62;7.05;;;;;;;9.43;71.49;101347.56;1732471;79;25935;-78
2022/09/04 03:50:43;;;;;;;11.05;7.20;;;;;;;9.40;71.54;101341.23;1770996;79;27459;-78
2022/09/04 03:53:27;;;;;;;13.75;7.70;;;;;;;9.37;71.52;101337.52;1750690;80;26072;-78
2022/09/04 03:56:24;;;;;;;13.00;6.87;;;;;;;9.32;71.49;101340.67;1786044;80;25704;-78
2022/09/04 03:59:08;;;;;;;14.10;7.25;;;;;;;9.31;71.65;101339.51;1765964;79;25786;-78
2022/09/04 04:01:42;;;;;;;14.38;7.55;;;;;;;9.29;71.52;101341.51;1760470;79;25751;-78
2022/09/04 04:04:34;;;;;;;12.20;6.58;;;;;;;9.26;71.62;101346.67;1768453;79;27476;-77
2022/09/04 04:07:45;;;;;;;14.15;7.95;;;;;;;9.24;71.63;101346.48;1766040;79;26491;-78
2022/09/04 04:10:32;;;;;;;11.70;6.67;;;;;;;9.22;71.73;101352.00;1744549;79;26449;-78
2022/09/04 04:13:03;;;;;;;12.20;6.33;;;;;;;9.19;71.93;101348.82;1771387;80;25849;-78
2022/09/04 04:16:10;;;;;;;13.98;8.53;;;;;;;9.17;71.97;101347.62;1765546;79;25919;-78
2022/09/04 04:19:16;;;;;;;12.73;7.75;;;;;;;9.16;71.94;101351.80;1748585;80;27422;-78
2022/09/04 04:21:57;;;;;;;14.40;7.12;;;;;;;9.14;72.11;101358.65;1762097;80;25316;-78
2022/09/04 04:24:56;;;;;;;10.80;7.40;;;;;;;9.12;72.19;101363.80;1772892;79;25858;-78
2022/09/04 04:27:44;;;;;;;11.97;7.08;;;;;;;9.11;72.19;101367.50;1772885;79;25917;-78
2022/09/04 04:30:14;;;;;;;13.58;7.87;;;;;;;9.08;72.30;101364.63;1763932;79;26098;-78
2022/09/04 04:32:52;;;;;;;14.40;7.53;;;;;;;9.06;72.56;101370.64;1776125;79;27518;-78
2022/09/04 04:35:36;;;;;;;12.90;7.53;;;;;;;9.06;72.70;101373.80;1762819;79;25843;-78
2022/09/04 04:38:28;;;;;;;12.93;7.83;;;;;;;9.06;72.76;101375.13;1773290;79;25992;-78
2022/09/04 04:41:14;;;;;;;16.77;8.00;;;;;;;9.06;72.92;101376.47;1774644;79;25755;-77
2022/09/04 04:44:13;;;;;;;13.88;7.37;;;;;;;9.06;73.01;101379.98;1763009;80;25889;-78
2022/09/04 04:47:06;;;;;;;14.38;7.40;;;;;;;9.04;73.13;101379.31;1780607;79;28422;-78
2022/09/04 04:49:55;;;;;;;9.85;6.60;;;;;;;9.01;73.22;101378.77;1754253;80;26360;-77
2022/09/04 04:52:43;;;;;;;14.18;7.70;;;;;;;8.99;73.48;101382.09;1762692;79;25874;-78
2022/09/04 04:55:39;;;;;;;12.80;7.25;;;;;;;8.98;73.73;101387.12;1735914;79;26608;-78
2022/09/04 04:58:29;;;;;;;11.90;7.95;;;;;;;8.97;73.94;101384.09;1755377;79;25854;-78
2022/09/04 05:01:34;;;;;;;13.13;7.87;;;;;;;8.97;74.26;101391.61;1768823;79;27634;-77
2022/09/04 05:04:12;;;;;;;14.30;7.17;;;;;;;8.97;74.56;101390.77;1772880;79;25882;-77
2022/09/04 05:06:56;;;;;;;14.78;8.13;;;;;;;8.98;74.82;101397.81;1765628;79;25792;-77
2022/09/04 05:09:37;;;;;;;18.27;8.95;;;;;;;9.02;75.10;101400.50;1751766;79;26475;-77
2022/09/04 05:12:21;;;;;;;17.45;9.00;;;;;;;9.06;75.34;101401.86;1769087;79;25913;-78
2022/09/04 05:15:18;;;;;;;16.10;8.48;;;;;;;9.12;75.44;101402.56;1770585;79;28383;-78
2022/09/04 05:18:03;;;;;;;18.95;9.15;;;;;;;9.19;75.59;101406.29;1768053;79;25817;-78
2022/09/04 05:20:40;;;;;;;22.20;9.15;;;;;;;9.26;75.82;101401.47;1765491;79;25800;-78
2022/09/04 05:23:18;;;;;;;14.25;8.65;;;;;;;9.34;75.80;101405.52;1769279;79;25985;-79
2022/09/04 05:25:59;;;;;;;16.62;9.25;;;;;;;9.42;76.02;101402.06;1770689;79;25879;-78
2022/09/04 05:28:51;;;;;;;16.32;8.98;;;;;;;9.49;76.16;101407.61;1769741;79;28273;-78
2022/09/04 05:31:45;;;;;;;15.32;9.60;;;;;;;9.57;76.17;101407.16;1762254;79;25758;-78
2022/09/04 05:34:51;;;;;;;16.77;9.75;;;;;;;9.67;76.38;101406.52;1774346;79;25777;-78
2022/09/04 05:37:37;;;;;;;17.57;10.08;;;;;;;9.77;76.48;101411.23;1766044;79;25847;-78
2022/09/04 05:40:29;;;;;;;22.67;10.95;;;;;;;9.87;76.95;101406.60;1775251;79;25845;-78
2022/09/04 05:43:26;;;;;;;19.23;11.03;;;;;;;9.98;77.02;101411.66;1761542;79;27462;-78
2022/09/04 05:45:58;;;;;;;17.40;10.28;;;;;;;;;;1768771;79;25918;-78
2022/09/04 05:48:47;;;;;;;17.32;10.68;;;;;;;10.23;77.29;101419.75;1771610;79;25804;-78
2022/09/04 05:52:01;;;;;;;17.42;12.00;;;;;;;10.34;77.38;101414.94;1770273;79;26474;-78
2022/09/04 05:54:50;;;;;;;17.40;11.00;;;;;;;10.47;77.67;101419.80;1767644;79;25786;-78
2022/09/04 05:57:28;;;;;;;19.85;12.13;;;;;;;10.61;78.11;101411.09;1776866;79;27452;-78
2022/09/04 06:00:05;;;;;;;18.30;11.78;;;;;;;10.74;78.48;101418.12;1773122;79;25895;-78
2022/09/04 06:02:57;;;;;;;21.17;11.80;;;;;;;10.88;78.52;101419.30;1770013;79;25343;-78
2022/09/04 06:05:57;;;;;;;22.75;13.03;;;;;;;11.01;79.02;101419.63;1761472;79;25783;-78
2022/09/04 06:09:02;;;;;;;17.73;12.10;;;;;;;11.15;79.44;101421.11;1761467;79;25688;-77
2022/09/04 06:12:01;;;;;;;19.60;11.35;;;;;;;11.33;79.95;101428.95;1776800;79;27410;-78
2022/09/04 06:14:59;;;;;;;18.07;11.05;;;;;;;11.49;80.20;101428.90;1716192;81;25881;-78
2022/09/04 06:17:48;;;;;;;21.45;12.03;;;;;;;11.64;80.30;101436.56;1766334;79;25750;-78
2022/09/04 06:20:49;;;;;;;18.15;11.53;;;;;;;11.76;80.23;101435.20;1730046;81;25858;-78
2022/09/04 06:23:26;;;;;;;19.98;11.88;;;;;;;11.91;80.22;101445.53;1764065;80;25713;-78
2022/09/04 06:26:16;;;;;;;20.62;11.43;;;;;;;12.05;80.28;101439.45;1771513;79;28287;-78
2022/09/04 06:29:03;;;;;;;15.78;10.82;;;;;;;12.20;80.39;101440.87;1703530;79;25976;-78
2022/09/04 06:31:44;;;;;;;17.40;11.08;;;;;;;12.34;80.63;101443.63;1755831;80;25819;-78
2022/09/04 06:34:14;;;;;;;;;;;;;;;12.50;80.88;101450.75;1781097;79;25779;-78
2022/09/04 06:37:08;;;;;;;17.95;10.63;;;;;;;12.62;81.05;101448.47;1776252;79;25773;-78
2022/09/04 06:40:17;;;;;;;18.45;11.22;;;;;;;12.74;81.17;101445.70;1740000;80;27579;-78
2022/09/04 06:42:58;;;;;;;17.82;11.73;;;;;;;12.90;81.26;101448.25;1754940;81;25710;-77
2022/09/04 06:46:01;;;;;;;18.98;11.70;;;;;;;13.05;81.43;101445.97;1767416;80;25783;-78
2022/09/04 06:49:02;;;;;;;21.15;10.40;;;;;;;13.18;81.42;101448.03;1764450;80;26530;-78
2022/09/04 06:51:52;;;;;;;18.32;11.53;;;;;;;13.35;81.86;101439.27;1758391;80;25772;-78
2022/09/04 06:54:42;;;;;;;20.23;11.08;;;;;;;13.51;81.96;101444.00;1751774;80;27654;-78
2022/09/04 06:57:55;;;;;;;19.55;10.80;;;;;;;13.68;81.79;101448.67;1756308;80;25819;-78
2022/09/04 07:00:21;;;;;;;16.30;9.90;;;;;;;13.82;81.37;101451.86;1706414;81;26477;-78
2022/09/04 07:03:25;;;;;;;14.13;8.73;;;;;;;13.98;81.70;101448.98;1747470;80;26590;-78
2022/09/04 07:06:20;;;;;;;14.47;8.25;;;;;;;14.12;81.16;101451.30;1757438;80;25815;-77
2022/09/04 07:09:17;;;;;;;16.02;9.20;;;;;;;14.27;81.09;101452.11;1773018;80;27924;-78
2022/09/04 07:12:17;;;;;;;18.02;8.73;;;;;;;14.42;81.56;101452.93;1763335;79;25916;-78
2022/09/04 07:15:27;;;;;;;16.55;7.92;;;;;;;14.56;81.69;101455.56;1772628;79;27719;-77
2022/09/04 07:18:31;;;;;;;17.17;9.35;;;;;;;14.74;81.49;101459.68;1767775;79;26718;-78
2022/09/04 07:21:53;;;;;;;13.80;8.58;;;;;;;14.87;81.32;101461.16;1760670;79;25841;-77
2022/09/04 07:24:40;;;;;;;14.53;7.87;;;;;;;14.99;81.20;101455.04;1767694;79;27531;-78
2022/09/04 07:27:34;;;;;;;8.60;6.37;;;;;;;15.15;80.71;101457.98;1771493;79;25898;-77
2022/09/04 07:30:08;;;;;;;11.33;6.92;;;;;;;15.26;80.84;101463.69;1752911;80;25880;-77
2022/09/04 07:33:24;;;;;;;11.78;6.83;;;;;;;15.41;81.01;101474.38;1779668;79;25911;-77
2022/09/04 07:36:06;;;;;;;10.82;6.47;;;;;;;15.54;81.19;101461.00;1760880;80;25900;-78
2022/09/04 07:39:07;;;;;;;9.98;6.65;;;;;;;15.69;80.34;101459.02;1769968;79;27535;-78
2022/09/04 07:42:02;;;;;;;10.78;5.87;;;;;;;15.80;79.94;101460.33;1766201;79;26455;-78
2022/09/04 07:44:53;;;;;;;10.60;5.55;;;;;;;15.91;79.28;101459.22;1777465;79;25718;-77
2022/09/04 07:47:34;;;;;;;10.48;5.53;;;;;;;16.04;79.28;101457.94;1736669;79;26003;-78
2022/09/04 07:50:24;;;;;;;8.63;5.20;;;;;;;16.18;78.75;101461.54;1768334;79;25708;-78
2022/09/04 07:53:25;;;;;;;11.18;6.08;;;;;;;16.31;78.72;101460.23;1774283;79;27486;-78
2022/09/04 07:55:59;;;;;;;7.20;4.97;;;;;;;16.43;78.08;101461.30;1772030;79;25768;-78
2022/09/04 07:58:52;;;;;;;8.18;5.40;;;;;;;16.55;78.03;101465.64;1759240;80;25792;-78
2022/09/04 08:01:47;;;;;;;7.28;4.85;;;;;;;16.67;77.79;101472.95;1769392;80;26553;-78
2022/09/04 08:04:42;;;;;;;6.28;4.40;;;;;;;16.79;76.83;101468.59;1770076;79;25785;-78
2022/09/04 08:07:16;;;;;;;8.28;4.90;;;;;;;16.91;77.03;101476.39;1765071;79;27490;-78
2022/09/04 08:10:12;;;;;;;11.22;4.78;;;;;;;17.02;75.87;101474.13;1778661;79;25842;-78
2022/09/04 08:12:45;;;;;;;6.60;5.10;;;;;;;17.12;75.78;101475.90;1732303;81;25718;-77
2022/09/04 08:15:37;;;;;;;6.97;4.85;;;;;;;17.24;75.70;101483.70;1764562;79;26518;-77
2022/09/04 08:18:29;;;;;;;;;;;;;;;17.31;74.43;101481.83;1750278;80;25785;-78
2022/09/04 08:21:29;;;;;;;4.53;3.52;;;;;;;17.38;74.38;101480.80;1752395;80;28297;-78
2022/09/04 08:24:28;;;;;;;5.47;4.50;;;;;;;17.46;73.91;101479.22;1749303;79;25720;-78
2022/09/04 08:27:27;;;;;;;5.78;4.53;;;;;;;17.58;73.82;101475.36;1771462;79;25759;-78
2022/09/04 08:30:09;;;;;;;9.03;4.70;;;;;;;17.71;73.03;101484.31;1762693;79;25813;-78
2022/09/04 08:33:01;;;;;;;8.70;5.08;;;;;;;17.82;72.93;101481.98;1767214;79;25795;-78
2022/09/04 08:35:50;;;;;;;6.83;4.67;;;;;;;17.92;71.76;101482.39;1771058;79;28005;-79
2022/09/04 08:38:38;;;;;;;7.72;4.90;;;;;;;17.99;71.17;101479.95;1773737;79;25897;-78
2022/09/04 08:41:36;;;;;;;9.80;5.35;;;;;;;18.07;71.28;101483.77;1784005;79;25771;-78
2022/09/04 08:44:29;;;;;;;7.87;5.17;;;;;;;18.13;70.62;101478.88;1747638;80;25981;-78
2022/09/04 08:47:26;;;;;;;8.95;5.05;;;;;;;18.21;70.12;101483.21;1771075;80;25926;-78
2022/09/04 08:50:26;;;;;;;10.28;4.45;;;;;;;18.29;69.74;101482.44;1752283;81;27613;-77
2022/09/04 08:53:10;;;;;;;6.15;4.33;;;;;;;18.38;69.53;101485.22;1756955;79;25775;-78
2022/09/04 08:55:47;;;;;;;9.00;5.10;;;;;;;18.47;68.82;101483.12;1772450;79;25860;-77
2022/09/04 08:58:44;;;;;;;10.80;4.87;;;;;;;18.55;68.18;101486.09;1779501;79;26356;-77
2022/09/04 09:01:36;;;;;;;5.92;4.20;;;;;;;18.61;67.59;101497.43;1762619;79;25992;-77
2022/09/04 09:04:37;;;;;;;6.17;4.03;;;;;;;18.66;67.46;101488.96;1763162;79;26914;-77
2022/09/04 09:07:19;;;;;;;;;;;;;;;18.71;66.99;101480.98;1776980;79;26654;-78
2022/09/04 09:09:57;;;;;;;6.30;4.85;;;;;;;18.76;66.22;101484.39;1769838;79;26469;-78
2022/09/04 09:12:41;;;;;;;5.70;4.25;;;;;;;18.81;66.08;101481.87;1773593;79;25821;-77
2022/09/04 09:15:30;;;;;;;7.30;4.67;;;;;;;18.90;65.96;101484.63;1773943;79;25977;-78
2022/09/04 09:18:04;;;;;;;6.15;4.00;;;;;;;18.98;65.50;101487.91;1774184;79;27452;-78
2022/09/04 09:20:56;;;;;;;8.50;4.05;;;;;;;19.04;65.15;101488.90;1762447;79;25720;-78
2022/09/04 09:23:34;;;;;;;8.63;4.90;;;;;;;19.08;64.53;101484.69;1759684;80;25725;-78
2022/09/04 09:26:29;;;;;;;6.47;4.50;;;;;;;19.19;64.63;101488.05;1761067;79;25945;-78
2022/09/04 09:29:29;;;;;;;6.90;4.28;;;;;;;19.29;63.81;101488.38;1770096;79;25749;-77
2022/09/04 09:32:50;;;;;;;5.58;3.87;;;;;;;19.37;63.30;101477.80;1769599;80;27518;-78
2022/09/04 09:36:01;;;;;;;6.95;4.00;;;;;;;19.43;62.77;101479.10;1720611;83;25867;-78
2022/09/04 09:38:44;;;;;;;5.75;3.62;;;;;;;19.51;62.73;101486.96;1759884;80;26441;-78
2022/09/04 09:41:40;;;;;;;6.55;4.30;;;;;;;19.60;62.73;101475.27;1765680;79;26528;-78
2022/09/04 09:44:42;;;;;;;6.60;4.08;;;;;;;19.65;61.65;101475.44;1765654;79;25873;-78
2022/09/04 09:47:19;;;;;;;4.65;4.08;;;;;;;19.69;60.91;101478.84;1761071;80;28198;-78
2022/09/04 09:50:20;;;;;;;7.97;4.20;;;;;;;19.73;60.73;101480.58;1763726;80;25870;-78
2022/09/04 09:53:23;;;;;;;6.67;4.92;;;;;;;19.75;60.35;101477.94;1772247;79;33591;-78
2022/09/04 09:56:33;;;;;;;7.50;4.12;;;;;;;19.82;59.73;101481.95;1788205;79;25787;-78
2022/09/04 09:59:24;;;;;;;8.08;4.35;;;;;;;19.84;59.70;101478.47;1738197;81;25789;-78
2022/09/04 10:02:37;;;;;;;6.03;4.33;;;;;;;19.93;59.27;101472.49;1763767;80;27477;-78
2022/09/04 10:05:40;;;;;;;6.75;4.62;;;;;;;20.03;58.87;101469.25;1789698;79;25677;-78
2022/09/04 10:08:40;;;;;;;7.37;4.12;;;;;;;20.18;59.04;101473.78;1782435;79;26394;-78
2022/09/04 10:11:49;;;;;;;7.30;5.35;;;;;;;20.31;58.73;101480.45;1778729;79;25776;-78
2022/09/04 10:14:41;;;;;;;8.33;6.22;;;;;;;20.47;57.44;101470.27;1659455;84;26371;-78
2022/09/04 10:17:33;;;;;;;8.68;4.92;;;;;;;20.63;57.10;101465.55;1656035;85;28264;-77
2022/09/04 10:20:35;;;;;;;5.03;4.45;;;;;;;20.75;56.63;101460.13;1766076;79;26030;-78
2022/09/04 10:26:03;;;;;;;8.43;5.50;;;;;;;20.86;55.84;101455.25;1717066;78;26386;-78
2022/09/04 10:29:01;;;;;;;6.47;4.83;;;;;;;20.92;54.78;101462.48;1733794;81;25788;-78
2022/09/04 10:31:48;;;;;;;9.05;5.53;;;;;;;20.93;54.59;101464.68;1726221;81;27546;-78
2022/09/04 10:34:49;;;;;;;8.08;5.78;;;;;;;20.94;54.13;101463.08;1680627;81;26740;-78
2022/09/04 10:37:51;;;;;;;7.20;5.35;;;;;;;21.00;53.64;101466.22;1738849;81;25846;-78
2022/09/04 10:40:54;;;;;;;10.23;5.67;;;;;;;21.06;52.46;101469.42;1723686;81;26605;-77
2022/09/04 10:47:10;;;;;;;9.78;6.03;;;;;;;21.09;52.77;101469.47;1715965;76;27204;-78
2022/09/04 10:49:48;;;;;;;9.20;5.50;;;;;;;21.19;52.14;101476.55;1747879;76;26719;-77
2022/09/04 10:52:40;;;;;;;8.15;6.15;;;;;;;21.29;51.48;101476.27;1763252;76;26536;-77
2022/09/04 10:55:18;;;;;;;9.10;5.28;;;;;;;21.36;50.67;101463.88;1791082;78;25837;-77
2022/09/04 10:58:09;;;;;;;5.78;5.10;;;;;;;21.37;49.83;101462.80;1799535;78;25895;-77
2022/09/04 11:01:02;;;;;;;7.58;5.33;;;;;;;21.34;50.13;101463.30;1794467;78;28021;-77
2022/09/04 11:03:58;;;;;;;7.87;5.03;;;;;;;21.30;50.34;101460.19;1793242;78;25862;-78
2022/09/04 11:06:46;;;;;;;9.28;5.45;;;;;;;21.30;49.94;101466.16;1794806;78;25724;-77
2022/09/04 11:12:51;;;;;;;10.23;5.53;;;;;;;21.39;49.42;101457.41;1744381;78;25937;-77
2022/09/04 11:15:32;;;;;;;8.73;5.55;;;;;;;21.55;49.51;101461.86;1744095;80;27480;-78
2022/09/04 11:18:45;;;;;;;7.03;5.45;;;;;;;21.65;49.23;101460.72;1763292;80;25749;-78
2022/09/04 11:21:35;;;;;;;8.75;5.85;;;;;;;21.73;49.31;101459.81;1761685;80;26433;-77
2022/09/04 11:24:32;;;;;;;11.63;5.97;;;;;;;21.84;49.35;101458.17;1751864;80;26000;-78
2022/09/04 11:27:38;;;;;;;9.08;5.83;;;;;;;21.93;48.38;101450.75;1751555;80;25795;-78
2022/09/04 11:30:18;;;;;;;8.45;5.80;;;;;;;22.06;48.17;101464.66;1769556;80;28294;-77
2022/09/04 11:33:10;;;;;;;8.95;5.50;;;;;;;22.09;48.03;101460.91;1759301;80;26096;-77
2022/09/04 11:36:29;;;;;;;5.62;4.95;;;;;;;22.16;48.17;101460.23;1757284;80;25824;-78
2022/09/04 11:39:33;;;;;;;8.43;5.35;;;;;;;22.26;48.32;101457.70;1759971;80;26239;-77
2022/09/04 11:42:19;;;;;;;9.83;6.25;;;;;;;22.38;47.11;101455.47;1757966;78;26079;-76
2022/09/04 11:45:12;;;;;;;7.22;5.42;;;;;;;22.43;47.86;101451.48;1752435;76;27493;-77
2022/09/04 11:48:23;;;;;;;11.65;6.83;;;;;;;22.51;46.93;101453.81;1755190;79;25740;-77
2022/09/04 11:51:38;;;;;;;7.58;5.87;;;;;;;22.54;47.20;101458.23;1773768;79;34933;-78
2022/09/04 11:54:46;;;;;;;8.03;5.70;;;;;;;22.61;46.48;101451.30;1709409;83;25911;-77
2022/09/04 11:57:43;;;;;;;8.00;5.35;;;;;;;22.66;46.15;101448.14;1764735;80;25922;-77
2022/09/04 12:00:14;;;;;;;7.87;4.75;;;;;;;22.71;45.44;101448.77;1723211;80;27483;-77
2022/09/04 12:03:05;;;;;;;;;;;;;;;22.74;45.28;101451.83;1779404;79;26468;-78
2022/09/04 12:06:00;;;;;;;6.15;4.70;;;;;;;22.72;45.28;101454.51;1734843;81;25787;-77
2022/09/04 12:08:54;;;;;;;5.80;4.28;;;;;;;22.73;45.38;101451.52;1748318;79;26558;-77
2022/09/04 12:11:44;;;;;;;6.45;4.78;;;;;;;22.83;44.86;101453.09;1771334;80;25726;-77
2022/09/04 12:14:19;;;;;;;7.55;5.25;;;;;;;22.84;44.33;101443.80;1767384;79;27482;-78
2022/09/04 12:17:27;;;;;;;6.28;4.55;;;;;;;22.93;44.78;101443.69;1768467;80;25961;-77
2022/09/04 12:20:10;;;;;;;8.13;5.10;;;;;;;23.02;44.83;101444.11;1732082;81;25873;-77
2022/09/04 12:23:05;;;;;;;8.25;4.95;;;;;;;23.12;44.93;101438.80;1766895;79;26559;-77
2022/09/04 12:25:45;;;;;;;8.65;5.05;;;;;;;23.22;44.36;101447.72;1764190;79;25990;-78
2022/09/04 12:28:50;;;;;;;8.53;4.75;;;;;;;23.30;44.46;101429.52;1759099;79;27646;-77
2022/09/04 12:31:59;;;;;;;6.33;4.78;;;;;;;23.37;43.83;101437.88;1751804;79;26090;-77
2022/09/04 12:34:39;;;;;;;5.87;4.75;;;;;;;23.40;42.72;101424.22;1785788;79;25796;-78
2022/09/04 12:37:47;;;;;;;6.50;5.03;;;;;;;23.45;43.83;101425.14;1752237;81;25768;-77
2022/09/04 12:40:33;;;;;;;6.28;4.50;;;;;;;23.57;43.32;101422.28;1604720;86;26779;-77
2022/09/04 12:43:20;;;;;;;8.60;4.95;;;;;;;23.65;42.58;101428.14;1661553;83;27479;-78
2022/09/04 12:46:15;;;;;;;8.10;4.90;;;;;;;23.62;41.83;101430.03;1731848;79;25927;-78
2022/09/04 12:49:08;;;;;;;8.90;5.42;;;;;;;23.56;41.39;101426.95;1770053;80;25934;-77
2022/09/04 12:51:40;;;;;;;7.33;5.53;;;;;;;23.53;42.24;101429.34;1726891;82;26589;-78
2022/09/04 12:54:42;;;;;;;9.80;5.65;;;;;;;23.41;42.08;101426.73;1783782;79;26367;-77
2022/09/04 12:57:36;;;;;;;7.85;5.20;;;;;;;23.28;41.74;101431.67;1769145;79;27463;-77
2022/09/04 13:00:15;;;;;;;9.35;5.47;;;;;;;23.13;43.44;101436.91;1770284;79;25794;-77
2022/09/04 13:03:10;;;;;;;8.00;5.58;;;;;;;22.99;43.15;101449.53;1758979;80;25726;-77
2022/09/04 13:06:20;;;;;;;8.18;5.37;;;;;;;22.72;43.04;101440.85;1760315;81;26543;-77
2022/09/04 13:09:25;;;;;;;6.20;5.17;;;;;;;22.48;43.93;101445.57;1776965;79;25757;-78
2022/09/04 13:12:38;;;;;;;7.90;4.55;;;;;;;22.23;44.59;101436.38;1767425;79;28261;-77
2022/09/04 13:15:28;;;;;;;7.28;4.62;;;;;;;22.13;44.71;101449.80;1786196;79;26535;-77
2022/09/04 13:18:26;;;;;;;8.58;4.85;;;;;;;21.97;45.07;101450.56;1696888;79;25974;-77
2022/09/04 13:21:15;;;;;;;8.88;4.85;;;;;;;21.89;45.59;101450.11;1775422;79;26841;-77
2022/09/04 13:24:03;;;;;;;12.10;5.17;;;;;;;21.81;45.62;101441.72;1785738;79;44347;-77
2022/09/04 13:26:39;;;;;;;7.22;5.05;;;;;;;21.76;45.58;101444.35;1806587;78;27458;-77